sensor_id;sensor_type;location;lat;lon;timestamp;temperature;humidity
1165;DHT22;571;50.930;6.926;2023-02-01T03:46:22;7.70;99.90
1165;DHT22;571;50.930;6.926;2023-02-01T03:48:52;7.70;99.90
1165;DHT22;571;50.930;6.926;2023-02-01T03:51:22;7.70;99.90
1165;DHT22;571;50.930;6.926;2023-02-01T03:53:52;7.60;99.90
1165;DHT22;571;50.930;6.926;2023-02-01T03:56:21;7.70;99.90
1165;DHT22;571;50.930;6.926;2023-02-01T03:58:49;7.60;99.90
1165;DHT22;571;50.930;6.926;2023-02-01T04:01:27;7.60;99.90
1165;DHT22;571;50.930;6.926;2023-02-01T04:03:54;7.60;99.90
1165;DHT22;571;50.930;6.926;2023-02-01T04:06:21;7.60;99.90
1165;DHT22;571;50.930;6.926;2023-02-01T04:08:48;7.50;99.90
1165;DHT22;571;50.930;6.926;2023-02-01T04:11:16;7.50;99.90
1165;DHT22;571;50.930;6.926;2023-02-01T04:13:44;7.50;99.90
1165;DHT22;571;50.930;6.926;2023-02-01T04:16:11;7.60;99.80
1165;DHT22;571;50.930;6.926;2023-02-01T04:18:43;7.50;99.80
1165;DHT22;571;50.930;6.926;2023-02-01T04:21:12;7.50;99.80
1165;DHT22;571;50.930;6.926;2023-02-01T04:23:40;7.60;99.70
1165;DHT22;571;50.930;6.926;2023-02-01T04:26:08;7.60;99.60
1165;DHT22;571;50.930;6.926;2023-02-01T04:28:35;7.60;99.70
1165;DHT22;571;50.930;6.926;2023-02-01T04:31:04;7.60;99.70
1165;DHT22;571;50.930;6.926;2023-02-01T04:33:32;7.70;99.40
1165;DHT22;571;50.930;6.926;2023-02-01T04:36:01;7.70;99.40
1165;DHT22;571;50.930;6.926;2023-02-01T04:38:29;7.60;99.60
1165;DHT22;571;50.930;6.926;2023-02-01T04:40:57;7.70;99.30
1165;DHT22;571;50.930;6.926;2023-02-01T04:43:25;7.60;99.40
1165;DHT22;571;50.930;6.926;2023-02-01T04:45:53;7.60;99.50
1165;DHT22;571;50.930;6.926;2023-02-01T04:48:22;7.60;99.30
1165;DHT22;571;50.930;6.926;2023-02-01T04:50:50;7.50;99.30
1165;DHT22;571;50.930;6.926;2023-02-01T04:53:22;7.50;99.50
1165;DHT22;571;50.930;6.926;2023-02-01T04:55:49;7.40;99.50
1165;DHT22;571;50.930;6.926;2023-02-01T04:58:16;7.50;99.60
1165;DHT22;571;50.930;6.926;2023-02-01T05:00:47;7.50;99.50
1165;DHT22;571;50.930;6.926;2023-02-01T05:03:15;7.50;99.40
1165;DHT22;571;50.930;6.926;2023-02-01T05:05:43;7.40;99.50
1165;DHT22;571;50.930;6.926;2023-02-01T05:08:12;7.30;99.50
1165;DHT22;571;50.930;6.926;2023-02-01T05:10:41;7.20;99.90
1165;DHT22;571;50.930;6.926;2023-02-01T05:13:11;7.30;99.50
1165;DHT22;571;50.930;6.926;2023-02-01T05:15:55;7.30;99.50
1165;DHT22;571;50.930;6.926;2023-02-01T05:18:24;7.20;99.70
1165;DHT22;571;50.930;6.926;2023-02-01T05:20:52;7.00;99.90
1165;DHT22;571;50.930;6.926;2023-02-01T05:23:19;7.10;99.60
1165;DHT22;571;50.930;6.926;2023-02-01T05:26:36;7.10;99.50
1165;DHT22;571;50.930;6.926;2023-02-01T05:29:36;7.10;99.00
1165;DHT22;571;50.930;6.926;2023-02-01T05:36:02;7.10;99.20
1165;DHT22;571;50.930;6.926;2023-02-01T05:38:38;7.10;99.30
1165;DHT22;571;50.930;6.926;2023-02-01T05:41:27;7.20;98.90
1165;DHT22;571;50.930;6.926;2023-02-01T05:44:12;7.10;98.90
1165;DHT22;571;50.930;6.926;2023-02-01T05:47:21;7.10;99.20
1165;DHT22;571;50.930;6.926;2023-02-01T05:49:58;7.00;99.20
1165;DHT22;571;50.930;6.926;2023-02-01T05:53:27;7.10;99.00
1165;DHT22;571;50.930;6.926;2023-02-01T06:00:00;6.90;99.30
1165;DHT22;571;50.930;6.926;2023-02-01T06:06:13;6.90;99.00
1165;DHT22;571;50.930;6.926;2023-02-01T06:09:34;6.90;98.90
1165;DHT22;571;50.930;6.926;2023-02-01T06:12:17;6.90;99.00
1165;DHT22;571;50.930;6.926;2023-02-01T06:21:13;6.80;99.40
1165;DHT22;571;50.930;6.926;2023-02-01T06:24:05;6.80;99.00
1165;DHT22;571;50.930;6.926;2023-02-01T06:26:54;6.80;99.10
1165;DHT22;571;50.930;6.926;2023-02-01T06:29:34;6.60;99.50
1165;DHT22;571;50.930;6.926;2023-02-01T06:36:28;6.70;99.50
1165;DHT22;571;50.930;6.926;2023-02-01T06:39:35;6.70;99.40
1165;DHT22;571;50.930;6.926;2023-02-01T06:45:50;6.80;99.10
1165;DHT22;571;50.930;6.926;2023-02-01T06:48:39;6.70;99.40
1165;DHT22;571;50.930;6.926;2023-02-01T06:51:27;6.80;99.10
1165;DHT22;571;50.930;6.926;2023-02-01T06:54:12;6.90;99.90
1165;DHT22;571;50.930;6.926;2023-02-01T06:56:57;6.70;99.40
1165;DHT22;571;50.930;6.926;2023-02-01T06:59:27;6.80;99.30
1165;DHT22;571;50.930;6.926;2023-02-01T07:02:08;6.80;99.30
1165;DHT22;571;50.930;6.926;2023-02-01T07:04:35;6.80;99.50
1165;DHT22;571;50.930;6.926;2023-02-01T07:07:02;6.90;99.30
1165;DHT22;571;50.930;6.926;2023-02-01T07:09:33;6.90;99.20
1165;DHT22;571;50.930;6.926;2023-02-01T07:12:08;6.90;99.50
1165;DHT22;571;50.930;6.926;2023-02-01T07:14:44;7.00;99.60
1165;DHT22;571;50.930;6.926;2023-02-01T07:17:10;7.00;99.30
1165;DHT22;571;50.930;6.926;2023-02-01T07:19:37;6.90;99.40
1165;DHT22;571;50.930;6.926;2023-02-01T07:22:07;7.00;99.30
1165;DHT22;571;50.930;6.926;2023-02-01T07:24:43;7.00;99.40
1165;DHT22;571;50.930;6.926;2023-02-01T07:27:09;7.00;99.40
1165;DHT22;571;50.930;6.926;2023-02-01T07:29:36;7.10;99.20
1165;DHT22;571;50.930;6.926;2023-02-01T07:32:03;7.10;99.10
1165;DHT22;571;50.930;6.926;2023-02-01T07:34:30;7.10;99.10
1165;DHT22;571;50.930;6.926;2023-02-01T07:36:56;7.10;99.20
1165;DHT22;571;50.930;6.926;2023-02-01T07:39:23;6.90;99.40
1165;DHT22;571;50.930;6.926;2023-02-01T07:41:51;6.90;99.70
1165;DHT22;571;50.930;6.926;2023-02-01T07:44:18;6.90;99.50
1165;DHT22;571;50.930;6.926;2023-02-01T07:46:48;7.00;99.30
1165;DHT22;571;50.930;6.926;2023-02-01T07:49:14;7.10;99.10
1165;DHT22;571;50.930;6.926;2023-02-01T07:51:42;7.10;99.00
1165;DHT22;571;50.930;6.926;2023-02-01T07:54:09;7.10;99.10
1165;DHT22;571;50.930;6.926;2023-02-01T07:56:36;7.00;99.00
1165;DHT22;571;50.930;6.926;2023-02-01T07:59:04;7.00;98.90
1165;DHT22;571;50.930;6.926;2023-02-01T08:01:32;6.90;99.10
1165;DHT22;571;50.930;6.926;2023-02-01T08:03:59;7.00;99.30
1165;DHT22;571;50.930;6.926;2023-02-01T08:06:27;7.10;99.10
1165;DHT22;571;50.930;6.926;2023-02-01T08:08:54;7.00;99.40
1165;DHT22;571;50.930;6.926;2023-02-01T08:11:22;7.00;99.30
1165;DHT22;571;50.930;6.926;2023-02-01T08:13:49;7.10;99.00
1165;DHT22;571;50.930;6.926;2023-02-01T08:16:18;7.00;98.90
1165;DHT22;571;50.930;6.926;2023-02-01T08:18:46;7.10;99.20
1165;DHT22;571;50.930;6.926;2023-02-01T08:21:14;7.00;98.90
1165;DHT22;571;50.930;6.926;2023-02-01T08:23:42;7.00;99.10
1165;DHT22;571;50.930;6.926;2023-02-01T08:35:17;7.20;99.00
1165;DHT22;571;50.930;6.926;2023-02-01T08:37:45;7.20;98.90
1165;DHT22;571;50.930;6.926;2023-02-01T08:47:02;7.30;98.60
1165;DHT22;571;50.930;6.926;2023-02-01T08:49:33;7.30;98.70
1165;DHT22;571;50.930;6.926;2023-02-01T08:52:02;7.30;98.60
1165;DHT22;571;50.930;6.926;2023-02-01T08:54:29;7.30;98.60
1165;DHT22;571;50.930;6.926;2023-02-01T08:56:58;7.40;98.50
1165;DHT22;571;50.930;6.926;2023-02-01T08:59:30;7.40;98.50
1165;DHT22;571;50.930;6.926;2023-02-01T09:01:58;7.50;98.20
1165;DHT22;571;50.930;6.926;2023-02-01T09:04:25;7.50;98.40
1165;DHT22;571;50.930;6.926;2023-02-01T09:06:51;7.50;98.60
1165;DHT22;571;50.930;6.926;2023-02-01T09:09:27;7.70;98.10
1165;DHT22;571;50.930;6.926;2023-02-01T09:11:59;7.70;97.80
1165;DHT22;571;50.930;6.926;2023-02-01T09:14:48;7.60;98.20
1165;DHT22;571;50.930;6.926;2023-02-01T09:17:20;7.60;97.90
1165;DHT22;571;50.930;6.926;2023-02-01T09:23:20;7.80;97.50
1165;DHT22;571;50.930;6.926;2023-02-01T09:29:20;8.00;97.40
1165;DHT22;571;50.930;6.926;2023-02-01T09:37:54;7.80;97.50
1165;DHT22;571;50.930;6.926;2023-02-01T09:39:17;7.90;97.40
1165;DHT22;571;50.930;6.926;2023-02-01T09:42:16;7.80;97.60
1165;DHT22;571;50.930;6.926;2023-02-01T09:45:27;7.90;97.40
1165;DHT22;571;50.930;6.926;2023-02-01T09:48:43;7.80;97.40
1165;DHT22;571;50.930;6.926;2023-02-01T09:55:03;8.10;97.40
1165;DHT22;571;50.930;6.926;2023-02-01T09:58:09;8.20;97.40
1165;DHT22;571;50.930;6.926;2023-02-01T10:04:14;8.20;97.00
1165;DHT22;571;50.930;6.926;2023-02-01T10:07:02;8.20;96.90
1165;DHT22;571;50.930;6.926;2023-02-01T10:10:03;8.00;97.10
1165;DHT22;571;50.930;6.926;2023-02-01T10:12:55;8.00;97.20
1165;DHT22;571;50.930;6.926;2023-02-01T10:15:58;8.10;97.30
1165;DHT22;571;50.930;6.926;2023-02-01T10:19:04;8.10;97.10
1165;DHT22;571;50.930;6.926;2023-02-01T10:24:55;8.00;97.50
1165;DHT22;571;50.930;6.926;2023-02-01T10:27:33;8.10;97.30
1165;DHT22;571;50.930;6.926;2023-02-01T10:30:20;8.20;97.10
1165;DHT22;571;50.930;6.926;2023-02-01T10:32:57;8.30;96.90
1165;DHT22;571;50.930;6.926;2023-02-01T10:35:33;8.30;96.80
1165;DHT22;571;50.930;6.926;2023-02-01T10:38:24;8.30;96.90
1165;DHT22;571;50.930;6.926;2023-02-01T10:41:12;8.20;97.00
1165;DHT22;571;50.930;6.926;2023-02-01T10:43:44;8.30;97.00
1165;DHT22;571;50.930;6.926;2023-02-01T10:46:40;8.40;96.70
1165;DHT22;571;50.930;6.926;2023-02-01T10:52:31;8.70;96.70
1165;DHT22;571;50.930;6.926;2023-02-01T10:59:04;9.00;96.20
1165;DHT22;571;50.930;6.926;2023-02-01T11:01:49;9.10;95.40
1165;DHT22;571;50.930;6.926;2023-02-01T11:04:50;9.10;95.60
1165;DHT22;571;50.930;6.926;2023-02-01T11:07:31;9.20;95.20
1165;DHT22;571;50.930;6.926;2023-02-01T11:09:59;9.20;95.00
1165;DHT22;571;50.930;6.926;2023-02-01T11:12:29;9.10;95.10
1165;DHT22;571;50.930;6.926;2023-02-01T11:15:03;9.10;95.20
1165;DHT22;571;50.930;6.926;2023-02-01T11:17:42;9.20;95.20
1165;DHT22;571;50.930;6.926;2023-02-01T11:20:14;9.20;95.20
1165;DHT22;571;50.930;6.926;2023-02-01T11:22:52;9.20;94.90
1165;DHT22;571;50.930;6.926;2023-02-01T11:25:23;9.20;95.00
1165;DHT22;571;50.930;6.926;2023-02-01T11:27:57;9.30;95.00
1165;DHT22;571;50.930;6.926;2023-02-01T11:30:37;9.30;94.90
1165;DHT22;571;50.930;6.926;2023-02-01T11:33:13;9.30;94.80
1165;DHT22;571;50.930;6.926;2023-02-01T11:35:52;9.50;94.70
1165;DHT22;571;50.930;6.926;2023-02-01T11:38:28;9.50;95.00
1165;DHT22;571;50.930;6.926;2023-02-01T11:41:27;9.60;94.30
1165;DHT22;571;50.930;6.926;2023-02-01T11:44:22;9.80;94.50
1165;DHT22;571;50.930;6.926;2023-02-01T11:53:44;9.70;94.30
1165;DHT22;571;50.930;6.926;2023-02-01T11:56:23;9.60;93.50
1165;DHT22;571;50.930;6.926;2023-02-01T11:59:13;9.60;93.80
1165;DHT22;571;50.930;6.926;2023-02-01T12:02:45;9.50;94.50
1165;DHT22;571;50.930;6.926;2023-02-01T12:05:40;9.40;94.10
1165;DHT22;571;50.930;6.926;2023-02-01T12:11:35;9.20;94.10
1165;DHT22;571;50.930;6.926;2023-02-01T12:14:29;9.20;94.30
1165;DHT22;571;50.930;6.926;2023-02-01T12:17:28;9.20;94.40
1165;DHT22;571;50.930;6.926;2023-02-01T12:20:31;9.20;94.20
1165;DHT22;571;50.930;6.926;2023-02-01T12:23:28;9.20;94.20
1165;DHT22;571;50.930;6.926;2023-02-01T12:29:22;9.20;94.70
1165;DHT22;571;50.930;6.926;2023-02-01T12:38:10;9.10;94.60
1165;DHT22;571;50.930;6.926;2023-02-01T12:41:00;9.30;94.40
1165;DHT22;571;50.930;6.926;2023-02-01T12:43:48;9.30;94.30
1165;DHT22;571;50.930;6.926;2023-02-01T12:47:10;9.40;94.30
1165;DHT22;571;50.930;6.926;2023-02-01T12:50:05;9.40;94.20
1165;DHT22;571;50.930;6.926;2023-02-01T12:52:44;9.40;94.10
1165;DHT22;571;50.930;6.926;2023-02-01T12:55:22;9.30;94.20
1165;DHT22;571;50.930;6.926;2023-02-01T12:58:01;9.30;94.30
1165;DHT22;571;50.930;6.926;2023-02-01T13:00:39;9.30;94.60
1165;DHT22;571;50.930;6.926;2023-02-01T13:03:15;9.40;94.40
1165;DHT22;571;50.930;6.926;2023-02-01T13:05:57;9.40;94.10
1165;DHT22;571;50.930;6.926;2023-02-01T13:08:38;9.30;94.30
1165;DHT22;571;50.930;6.926;2023-02-01T13:11:20;9.20;94.30
1165;DHT22;571;50.930;6.926;2023-02-01T13:13:56;9.00;94.80
1165;DHT22;571;50.930;6.926;2023-02-01T13:16:28;9.00;94.60
1165;DHT22;571;50.930;6.926;2023-02-01T13:19:10;9.00;94.90
1165;DHT22;571;50.930;6.926;2023-02-01T13:21:45;9.00;95.10
1165;DHT22;571;50.930;6.926;2023-02-01T13:24:24;9.10;94.70
1165;DHT22;571;50.930;6.926;2023-02-01T13:26:58;9.10;94.70
1165;DHT22;571;50.930;6.926;2023-02-01T13:29:25;9.10;94.80
1165;DHT22;571;50.930;6.926;2023-02-01T13:32:17;9.00;94.80
1165;DHT22;571;50.930;6.926;2023-02-01T13:35:21;9.00;94.90
1165;DHT22;571;50.930;6.926;2023-02-01T13:41:13;9.00;95.60
1165;DHT22;571;50.930;6.926;2023-02-01T13:43:48;9.00;95.60
1165;DHT22;571;50.930;6.926;2023-02-01T13:46:17;9.00;95.70
1165;DHT22;571;50.930;6.926;2023-02-01T13:48:48;9.00;95.80
1165;DHT22;571;50.930;6.926;2023-02-01T13:51:18;8.90;95.90
1165;DHT22;571;50.930;6.926;2023-02-01T13:53:55;9.00;95.90
1165;DHT22;571;50.930;6.926;2023-02-01T13:56:24;9.00;95.90
1165;DHT22;571;50.930;6.926;2023-02-01T14:02:36;9.00;96.10
1165;DHT22;571;50.930;6.926;2023-02-01T14:05:17;8.90;95.90
1165;DHT22;571;50.930;6.926;2023-02-01T14:11:52;9.00;95.60
1165;DHT22;571;50.930;6.926;2023-02-01T14:21:13;8.90;95.50
1165;DHT22;571;50.930;6.926;2023-02-01T14:23:47;9.00;95.20
1165;DHT22;571;50.930;6.926;2023-02-01T14:26:19;9.00;95.00
1165;DHT22;571;50.930;6.926;2023-02-01T14:29:00;9.10;95.10
1165;DHT22;571;50.930;6.926;2023-02-01T14:35:19;9.00;95.00
1165;DHT22;571;50.930;6.926;2023-02-01T14:38:00;9.10;94.80
1165;DHT22;571;50.930;6.926;2023-02-01T14:40:37;9.20;94.60
1165;DHT22;571;50.930;6.926;2023-02-01T14:50:43;9.10;94.60
1165;DHT22;571;50.930;6.926;2023-02-01T15:44:42;9.20;94.20
1165;DHT22;571;50.930;6.926;2023-02-01T15:47:16;9.20;94.20
1165;DHT22;571;50.930;6.926;2023-02-01T15:49:45;9.20;94.20
1165;DHT22;571;50.930;6.926;2023-02-01T15:52:21;9.30;94.00
1165;DHT22;571;50.930;6.926;2023-02-01T15:54:52;9.30;94.20
1165;DHT22;571;50.930;6.926;2023-02-01T15:57:22;9.40;93.80
1165;DHT22;571;50.930;6.926;2023-02-01T15:59:57;9.30;94.10
1165;DHT22;571;50.930;6.926;2023-02-01T16:02:27;9.30;94.00
1165;DHT22;571;50.930;6.926;2023-02-01T16:04:54;9.50;94.00
1165;DHT22;571;50.930;6.926;2023-02-01T16:07:26;9.40;93.80
1165;DHT22;571;50.930;6.926;2023-02-01T16:09:55;9.40;94.30
1165;DHT22;571;50.930;6.926;2023-02-01T16:12:29;9.40;94.20
1165;DHT22;571;50.930;6.926;2023-02-01T16:14:58;9.40;94.20
1165;DHT22;571;50.930;6.926;2023-02-01T16:17:24;9.40;94.50
1165;DHT22;571;50.930;6.926;2023-02-01T16:19:51;9.40;95.10
1165;DHT22;571;50.930;6.926;2023-02-01T16:22:18;9.20;95.80
1165;DHT22;571;50.930;6.926;2023-02-01T16:24:45;9.10;96.90
1165;DHT22;571;50.930;6.926;2023-02-01T16:27:12;9.10;97.60
1165;DHT22;571;50.930;6.926;2023-02-01T16:29:39;9.00;97.80
1165;DHT22;571;50.930;6.926;2023-02-01T16:32:14;9.00;98.20
1165;DHT22;571;50.930;6.926;2023-02-01T16:34:41;9.00;98.70
1165;DHT22;571;50.930;6.926;2023-02-01T16:37:11;8.90;99.00
1165;DHT22;571;50.930;6.926;2023-02-01T16:39:38;8.90;99.10
1165;DHT22;571;50.930;6.926;2023-02-01T16:42:10;8.80;99.30
1165;DHT22;571;50.930;6.926;2023-02-01T16:44:38;8.60;99.90
1165;DHT22;571;50.930;6.926;2023-02-01T16:47:11;8.70;99.90
1165;DHT22;571;50.930;6.926;2023-02-01T16:49:41;8.70;99.90
1165;DHT22;571;50.930;6.926;2023-02-01T16:52:13;8.70;99.90
1165;DHT22;571;50.930;6.926;2023-02-01T16:54:42;8.70;99.90
1165;DHT22;571;50.930;6.926;2023-02-01T16:57:11;8.70;99.90
1165;DHT22;571;50.930;6.926;2023-02-01T16:59:41;8.70;99.90
1165;DHT22;571;50.930;6.926;2023-02-01T17:02:15;8.60;99.90
1165;DHT22;571;50.930;6.926;2023-02-01T17:04:42;8.60;99.90
1165;DHT22;571;50.930;6.926;2023-02-01T17:07:12;8.60;99.90
1165;DHT22;571;50.930;6.926;2023-02-01T17:09:39;8.50;99.90
1165;DHT22;571;50.930;6.926;2023-02-01T17:12:09;8.60;99.90
1165;DHT22;571;50.930;6.926;2023-02-01T17:14:53;8.50;99.90
1165;DHT22;571;50.930;6.926;2023-02-01T17:17:28;8.50;99.90
1165;DHT22;571;50.930;6.926;2023-02-01T17:19:58;8.60;99.90
1165;DHT22;571;50.930;6.926;2023-02-01T17:22:24;8.70;99.90
1165;DHT22;571;50.930;6.926;2023-02-01T17:24:51;8.60;99.90
1165;DHT22;571;50.930;6.926;2023-02-01T17:27:18;8.60;99.90
1165;DHT22;571;50.930;6.926;2023-02-01T17:29:46;8.50;99.90
1165;DHT22;571;50.930;6.926;2023-02-01T17:32:16;8.60;99.90
1165;DHT22;571;50.930;6.926;2023-02-01T17:34:45;8.50;99.90
1165;DHT22;571;50.930;6.926;2023-02-01T17:37:21;8.60;99.90
1165;DHT22;571;50.930;6.926;2023-02-01T17:39:49;8.50;99.90
1165;DHT22;571;50.930;6.926;2023-02-01T17:42:23;8.50;99.90
1165;DHT22;571;50.930;6.926;2023-02-01T17:44:51;8.60;99.90
1165;DHT22;571;50.930;6.926;2023-02-01T17:47:17;8.60;99.90
1165;DHT22;571;50.930;6.926;2023-02-01T17:49:45;8.60;99.90
1165;DHT22;571;50.930;6.926;2023-02-01T17:52:17;8.50;99.90
1165;DHT22;571;50.930;6.926;2023-02-01T17:54:44;8.40;99.90
1165;DHT22;571;50.930;6.926;2023-02-01T17:57:12;8.40;99.90
1165;DHT22;571;50.930;6.926;2023-02-01T17:59:39;8.30;99.90
1165;DHT22;571;50.930;6.926;2023-02-01T18:02:16;8.40;99.90
1165;DHT22;571;50.930;6.926;2023-02-01T18:04:43;8.30;99.90
1165;DHT22;571;50.930;6.926;2023-02-01T18:07:11;8.30;99.90
1165;DHT22;571;50.930;6.926;2023-02-01T18:09:38;8.20;99.90
1165;DHT22;571;50.930;6.926;2023-02-01T18:12:08;8.30;99.90
1165;DHT22;571;50.930;6.926;2023-02-01T18:14:38;8.30;99.90
1165;DHT22;571;50.930;6.926;2023-02-01T18:17:04;8.40;99.90
1165;DHT22;571;50.930;6.926;2023-02-01T18:19:32;8.40;99.90
1165;DHT22;571;50.930;6.926;2023-02-01T18:22:01;8.30;99.90
1165;DHT22;571;50.930;6.926;2023-02-01T18:24:31;8.30;99.90
1165;DHT22;571;50.930;6.926;2023-02-01T18:26:59;8.40;99.90
1165;DHT22;571;50.930;6.926;2023-02-01T18:29:26;8.50;99.90
1165;DHT22;571;50.930;6.926;2023-02-01T18:31:53;8.60;99.90
1165;DHT22;571;50.930;6.926;2023-02-01T18:34:20;8.60;99.90
1165;DHT22;571;50.930;6.926;2023-02-01T18:36:49;8.60;99.90
1165;DHT22;571;50.930;6.926;2023-02-01T18:39:17;8.60;99.90
1165;DHT22;571;50.930;6.926;2023-02-01T18:41:45;8.50;99.90
1165;DHT22;571;50.930;6.926;2023-02-01T18:44:14;8.50;99.90
1165;DHT22;571;50.930;6.926;2023-02-01T18:46:41;8.60;99.90
1165;DHT22;571;50.930;6.926;2023-02-01T18:49:08;8.50;99.90
1165;DHT22;571;50.930;6.926;2023-02-01T18:51:38;8.60;99.90
1165;DHT22;571;50.930;6.926;2023-02-01T18:54:10;8.50;99.90
1165;DHT22;571;50.930;6.926;2023-02-01T18:56:37;8.50;99.90
1165;DHT22;571;50.930;6.926;2023-02-01T18:59:07;8.60;99.90
1165;DHT22;571;50.930;6.926;2023-02-01T19:01:36;8.60;99.90
1165;DHT22;571;50.930;6.926;2023-02-01T19:04:05;8.60;99.80
1165;DHT22;571;50.930;6.926;2023-02-01T19:06:32;8.60;99.80
1165;DHT22;571;50.930;6.926;2023-02-01T19:09:02;8.50;99.90
1165;DHT22;571;50.930;6.926;2023-02-01T19:11:29;8.50;99.80
1165;DHT22;571;50.930;6.926;2023-02-01T19:13:55;8.50;99.90
1165;DHT22;571;50.930;6.926;2023-02-01T19:16:24;8.50;99.80
1165;DHT22;571;50.930;6.926;2023-02-01T19:18:51;8.50;99.90
1165;DHT22;571;50.930;6.926;2023-02-01T19:21:18;8.50;99.90
1165;DHT22;571;50.930;6.926;2023-02-01T19:23:45;8.60;99.70
1165;DHT22;571;50.930;6.926;2023-02-01T19:26:13;8.60;99.90
1165;DHT22;571;50.930;6.926;2023-02-01T19:28:40;8.60;99.50
1165;DHT22;571;50.930;6.926;2023-02-01T19:31:09;8.60;99.70
1165;DHT22;571;50.930;6.926;2023-02-01T19:33:38;8.60;99.70
1165;DHT22;571;50.930;6.926;2023-02-01T19:36:05;8.50;99.80
1165;DHT22;571;50.930;6.926;2023-02-01T19:38:34;8.60;99.70
1165;DHT22;571;50.930;6.926;2023-02-01T19:41:02;8.60;99.60
1165;DHT22;571;50.930;6.926;2023-02-01T19:43:29;8.60;99.70
1165;DHT22;571;50.930;6.926;2023-02-01T19:45:57;8.60;99.60
1165;DHT22;571;50.930;6.926;2023-02-01T19:48:23;8.60;99.80
1165;DHT22;571;50.930;6.926;2023-02-01T19:50:52;8.60;99.70
1165;DHT22;571;50.930;6.926;2023-02-01T19:53:20;8.50;99.90
1165;DHT22;571;50.930;6.926;2023-02-01T19:55:49;8.50;99.90
1165;DHT22;571;50.930;6.926;2023-02-01T19:58:16;8.50;99.90
1165;DHT22;571;50.930;6.926;2023-02-01T20:00:42;8.60;99.80
1165;DHT22;571;50.930;6.926;2023-02-01T20:03:09;8.60;99.80
1165;DHT22;571;50.930;6.926;2023-02-01T20:05:36;8.50;99.80
1165;DHT22;571;50.930;6.926;2023-02-01T20:08:05;8.60;99.80
1165;DHT22;571;50.930;6.926;2023-02-01T20:10:33;8.50;99.90
1165;DHT22;571;50.930;6.926;2023-02-01T20:13:00;8.60;99.90
1165;DHT22;571;50.930;6.926;2023-02-01T20:15:27;8.60;99.90
1165;DHT22;571;50.930;6.926;2023-02-01T20:17:54;8.60;99.90
1165;DHT22;571;50.930;6.926;2023-02-01T20:20:20;8.70;99.60
1165;DHT22;571;50.930;6.926;2023-02-01T20:22:48;8.70;99.40
1165;DHT22;571;50.930;6.926;2023-02-01T20:25:16;8.80;99.50
1165;DHT22;571;50.930;6.926;2023-02-01T20:27:43;8.70;99.50
1165;DHT22;571;50.930;6.926;2023-02-01T20:30:10;8.70;99.60
1165;DHT22;571;50.930;6.926;2023-02-01T20:32:38;8.60;99.80
1165;DHT22;571;50.930;6.926;2023-02-01T20:35:06;8.50;99.90
1165;DHT22;571;50.930;6.926;2023-02-01T20:37:33;8.60;99.90
1165;DHT22;571;50.930;6.926;2023-02-01T20:40:02;8.60;99.90
1165;DHT22;571;50.930;6.926;2023-02-01T20:42:30;8.60;99.90
1165;DHT22;571;50.930;6.926;2023-02-01T20:44:57;8.60;99.80
1165;DHT22;571;50.930;6.926;2023-02-01T20:47:23;8.70;99.80
1165;DHT22;571;50.930;6.926;2023-02-01T20:49:50;8.70;99.90
1165;DHT22;571;50.930;6.926;2023-02-01T20:52:17;8.60;99.90
1165;DHT22;571;50.930;6.926;2023-02-01T20:54:44;8.70;99.90
1165;DHT22;571;50.930;6.926;2023-02-01T20:57:11;8.70;99.90
1165;DHT22;571;50.930;6.926;2023-02-01T20:59:39;8.70;99.90
1165;DHT22;571;50.930;6.926;2023-02-01T21:02:05;8.60;99.90
1165;DHT22;571;50.930;6.926;2023-02-01T21:04:33;8.60;99.90
1165;DHT22;571;50.930;6.926;2023-02-01T21:06:59;8.70;99.90
1165;DHT22;571;50.930;6.926;2023-02-01T21:09:27;8.70;99.90
1165;DHT22;571;50.930;6.926;2023-02-01T21:11:54;8.70;99.90
1165;DHT22;571;50.930;6.926;2023-02-01T21:14:21;8.70;99.90
1165;DHT22;571;50.930;6.926;2023-02-01T21:16:50;8.60;99.90
1165;DHT22;571;50.930;6.926;2023-02-01T21:19:16;8.60;99.90
1165;DHT22;571;50.930;6.926;2023-02-01T21:21:43;8.60;99.90
1165;DHT22;571;50.930;6.926;2023-02-01T21:24:10;8.60;99.90
1165;DHT22;571;50.930;6.926;2023-02-01T21:26:37;8.70;99.90
1165;DHT22;571;50.930;6.926;2023-02-01T21:29:10;8.70;99.90
1165;DHT22;571;50.930;6.926;2023-02-01T21:31:55;8.70;99.90
1165;DHT22;571;50.930;6.926;2023-02-01T21:34:22;8.60;99.90
1165;DHT22;571;50.930;6.926;2023-02-01T21:36:55;8.70;99.90
1165;DHT22;571;50.930;6.926;2023-02-01T21:39:24;8.80;99.90
1165;DHT22;571;50.930;6.926;2023-02-01T21:42:01;8.70;99.90
1165;DHT22;571;50.930;6.926;2023-02-01T21:44:53;8.60;99.90
1165;DHT22;571;50.930;6.926;2023-02-01T21:47:22;8.70;99.90
1165;DHT22;571;50.930;6.926;2023-02-01T21:49:48;8.70;99.90
1165;DHT22;571;50.930;6.926;2023-02-01T21:52:16;8.80;99.90
1165;DHT22;571;50.930;6.926;2023-02-01T21:54:42;8.80;99.90
1165;DHT22;571;50.930;6.926;2023-02-01T21:57:09;8.70;99.90
1165;DHT22;571;50.930;6.926;2023-02-01T21:59:37;8.70;99.90
1165;DHT22;571;50.930;6.926;2023-02-01T22:02:05;8.70;99.90
1165;DHT22;571;50.930;6.926;2023-02-01T22:04:34;8.80;99.90
1165;DHT22;571;50.930;6.926;2023-02-01T22:07:01;8.70;99.90
1165;DHT22;571;50.930;6.926;2023-02-01T22:09:28;8.80;99.90
1165;DHT22;571;50.930;6.926;2023-02-01T22:11:55;8.80;99.90
1165;DHT22;571;50.930;6.926;2023-02-01T22:14:22;8.90;99.90
1165;DHT22;571;50.930;6.926;2023-02-01T22:16:49;8.90;99.90
1165;DHT22;571;50.930;6.926;2023-02-01T22:19:16;8.90;99.90
1165;DHT22;571;50.930;6.926;2023-02-01T22:21:45;8.80;99.90
1165;DHT22;571;50.930;6.926;2023-02-01T22:24:14;8.80;99.90
1165;DHT22;571;50.930;6.926;2023-02-01T22:26:42;8.80;99.90
1165;DHT22;571;50.930;6.926;2023-02-01T22:29:10;8.90;99.90
1165;DHT22;571;50.930;6.926;2023-02-01T22:31:39;8.90;99.90
1165;DHT22;571;50.930;6.926;2023-02-01T22:34:07;8.80;99.90
1165;DHT22;571;50.930;6.926;2023-02-01T22:36:34;8.90;99.90
1165;DHT22;571;50.930;6.926;2023-02-01T22:39:02;8.90;99.90
1165;DHT22;571;50.930;6.926;2023-02-01T22:41:29;9.00;99.90
1165;DHT22;571;50.930;6.926;2023-02-01T22:43:56;9.00;99.90
1165;DHT22;571;50.930;6.926;2023-02-01T22:46:26;8.90;99.90
1165;DHT22;571;50.930;6.926;2023-02-01T22:48:56;8.90;99.90
1165;DHT22;571;50.930;6.926;2023-02-01T22:51:26;8.90;99.90
1165;DHT22;571;50.930;6.926;2023-02-01T22:53:53;8.90;99.90
1165;DHT22;571;50.930;6.926;2023-02-01T22:56:24;8.90;99.90
1165;DHT22;571;50.930;6.926;2023-02-01T22:58:55;9.00;99.90
